createdAt,value
2019-03-02T00:01:57.728Z,14.93
2019-03-02T00:04:28.115Z,14.97
2019-03-02T00:06:58.494Z,15.57
2019-03-02T00:09:31.789Z,14.17
2019-03-02T00:12:00.908Z,14.83
2019-03-02T00:14:31.290Z,14.37
2019-03-02T00:17:01.636Z,15.53
2019-03-02T00:19:31.950Z,15.10
2019-03-02T00:22:06.443Z,14.33
2019-03-02T00:24:34.416Z,15.40
2019-03-02T00:27:04.761Z,15.53
2019-03-02T00:29:35.113Z,14.33
2019-03-02T00:32:05.802Z,15.33
2019-03-02T00:34:37.564Z,15.37
2019-03-02T00:37:07.982Z,13.57
2019-03-02T00:39:38.374Z,14.80
2019-03-02T00:42:08.707Z,14.43
2019-03-02T00:44:39.401Z,14.40
2019-03-02T00:47:09.797Z,15.73
2019-03-02T00:49:40.157Z,14.90
2019-03-02T00:52:10.476Z,13.93
2019-03-02T00:54:43.437Z,14.80
2019-03-02T00:57:14.847Z,14.13
2019-03-02T00:59:44.954Z,14.83
2019-03-02T01:02:15.334Z,14.87
2019-03-02T01:04:45.700Z,14.47
2019-03-02T01:07:16.042Z,15.60
2019-03-02T01:09:46.705Z,15.37
2019-03-02T01:12:17.725Z,13.93
2019-03-02T01:14:48.061Z,15.13
2019-03-02T01:17:18.404Z,15.00
2019-03-02T01:19:49.015Z,15.07
2019-03-02T01:22:20.826Z,13.67
2019-03-02T01:24:51.172Z,14.90
2019-03-02T01:27:21.548Z,14.90
2019-03-02T01:29:54.651Z,15.03
2019-03-02T01:32:23.922Z,14.40
2019-03-02T01:34:54.262Z,14.00
2019-03-02T01:37:24.593Z,15.67
2019-03-02T01:39:54.934Z,15.33
2019-03-02T01:42:25.887Z,14.13
2019-03-02T01:44:57.407Z,14.07
2019-03-02T01:47:27.729Z,14.57
2019-03-02T01:49:58.125Z,14.03
2019-03-02T01:52:30.617Z,13.47
2019-03-02T01:55:00.511Z,14.47
2019-03-02T01:57:30.897Z,15.20
2019-03-02T02:00:01.297Z,13.53
2019-03-02T02:02:32.750Z,15.10
2019-03-02T02:05:03.786Z,13.83
2019-03-02T02:07:34.111Z,14.13
2019-03-02T02:10:07.377Z,13.80
2019-03-02T02:12:37.735Z,13.87
2019-03-02T02:15:11.319Z,15.00
2019-03-02T02:17:41.684Z,14.47
2019-03-02T02:20:14.632Z,14.60
2019-03-02T02:22:45.660Z,14.47
2019-03-02T02:25:16.935Z,14.93
2019-03-02T02:27:47.316Z,15.57
2019-03-02T02:30:26.290Z,15.13
2019-03-02T02:33:03.197Z,14.70
2019-03-02T02:35:28.816Z,14.63
2019-03-02T02:37:59.214Z,15.73
2019-03-02T02:40:29.549Z,14.97
2019-03-02T02:42:59.887Z,14.50
2019-03-02T02:45:30.591Z,16.10
2019-03-02T02:48:00.970Z,14.77
2019-03-02T02:50:31.647Z,16.03
2019-03-02T02:53:06.844Z,13.53
2019-03-02T02:55:36.087Z,18.97
2019-03-02T02:58:06.212Z,15.23
2019-03-02T03:00:37.094Z,18.23
2019-03-02T03:03:07.454Z,17.00
2019-03-02T03:05:37.835Z,18.40
2019-03-02T03:08:08.167Z,17.30
2019-03-02T03:10:40.427Z,17.97
2019-03-02T03:13:10.792Z,18.67
2019-03-02T03:15:46.553Z,17.33
2019-03-02T03:18:16.898Z,20.50
2019-03-02T03:20:48.785Z,16.83
2019-03-02T03:23:19.914Z,19.13
2019-03-02T03:25:56.167Z,18.27
2019-03-02T03:28:25.949Z,17.93
2019-03-02T03:30:55.640Z,18.60
2019-03-02T03:33:25.982Z,18.83
2019-03-02T03:35:57.735Z,19.80
2019-03-02T03:39:28.786Z,19.53
2019-03-02T03:41:59.112Z,17.87
2019-03-02T03:44:29.470Z,18.67
2019-03-02T03:47:00.738Z,19.43
2019-03-02T03:49:34.266Z,19.10
2019-03-02T03:52:09.251Z,18.30
2019-03-02T03:54:36.026Z,18.27
2019-03-02T03:57:06.344Z,18.20
2019-03-02T03:59:36.689Z,16.77
2019-03-02T04:02:07.073Z,17.77
2019-03-02T04:04:37.388Z,18.30
2019-03-02T04:07:08.140Z,18.17
2019-03-02T04:09:42.874Z,18.77
2019-03-02T04:12:10.680Z,17.97
2019-03-02T04:14:41.052Z,18.03
2019-03-02T04:17:11.438Z,17.70
2019-03-02T04:19:41.764Z,15.57
2019-03-02T04:22:13.894Z,18.03
2019-03-02T04:24:44.356Z,16.80
2019-03-02T04:27:15.661Z,18.30
2019-03-02T04:29:50.388Z,19.13
2019-03-02T04:32:18.962Z,17.80
2019-03-02T04:34:49.309Z,17.17
2019-03-02T04:37:20.273Z,17.77
2019-03-02T04:39:51.758Z,17.80
2019-03-02T04:42:22.076Z,16.80
2019-03-02T04:44:52.479Z,18.40
2019-03-02T04:47:26.232Z,17.77
2019-03-02T04:49:54.874Z,16.60
2019-03-02T04:52:25.432Z,17.73
2019-03-02T04:54:55.760Z,17.17
2019-03-02T04:57:26.097Z,18.27
2019-03-02T04:59:56.842Z,17.30
2019-03-02T05:02:27.964Z,17.57
2019-03-02T05:04:58.290Z,17.87
2019-03-02T05:07:30.221Z,17.43
2019-03-02T05:10:00.690Z,16.47
2019-03-02T05:12:31.048Z,17.03
2019-03-02T05:15:01.429Z,17.13
2019-03-02T05:17:31.907Z,17.63
2019-03-02T05:20:04.785Z,17.63
2019-03-02T05:22:34.403Z,18.00
2019-03-02T05:25:05.086Z,15.97
2019-03-02T05:27:35.442Z,18.07
2019-03-02T05:30:06.627Z,17.33
2019-03-02T05:32:36.983Z,18.73
2019-03-02T05:35:07.346Z,18.73
2019-03-02T05:37:39.194Z,17.80
2019-03-02T05:40:09.865Z,18.33
2019-03-02T05:42:40.192Z,18.50
2019-03-02T05:45:10.921Z,18.77
2019-03-02T05:47:41.243Z,18.73
2019-03-02T05:50:11.638Z,17.43
2019-03-02T05:52:42.045Z,17.57
2019-03-02T05:55:14.332Z,17.73
2019-03-02T05:57:45.152Z,16.63
2019-03-02T06:00:16.385Z,17.63
2019-03-02T06:02:46.880Z,18.70
2019-03-02T06:05:17.191Z,17.23
2019-03-02T06:07:47.510Z,17.23
2019-03-02T06:10:17.974Z,17.20
2019-03-02T06:12:51.545Z,16.63
2019-03-02T06:15:20.493Z,17.07
2019-03-02T06:17:50.834Z,16.97
2019-03-02T06:20:21.276Z,17.67
2019-03-02T06:22:52.359Z,16.67
2019-03-02T06:25:23.804Z,16.57
2019-03-02T06:27:54.187Z,15.50
2019-03-02T06:30:24.641Z,16.60
2019-03-02T06:32:55.104Z,16.60
2019-03-02T06:35:29.110Z,16.50
2019-03-02T06:37:58.863Z,17.40
2019-03-02T06:40:29.230Z,17.27
2019-03-02T06:42:59.729Z,17.23
2019-03-02T06:45:30.080Z,18.73
2019-03-02T06:48:00.525Z,17.73
2019-03-02T06:50:31.805Z,18.23
2019-03-02T06:53:03.157Z,19.33
2019-03-02T06:55:33.503Z,18.80
2019-03-02T06:58:05.520Z,18.63
2019-03-02T07:00:35.891Z,17.07
2019-03-02T07:03:06.687Z,16.27
2019-03-02T07:05:38.349Z,17.20
2019-03-02T07:08:08.857Z,18.00
2019-03-02T07:10:39.199Z,17.47
2019-03-02T07:13:11.313Z,17.50
2019-03-02T07:15:43.682Z,18.47
2019-03-02T07:18:32.729Z,18.10
2019-03-02T07:21:06.470Z,17.33
2019-03-02T07:23:35.392Z,17.10
2019-03-02T07:26:05.751Z,17.17
2019-03-02T07:28:38.741Z,18.50
2019-03-02T07:31:08.255Z,17.43
2019-03-02T07:33:38.647Z,17.27
2019-03-02T07:36:09.055Z,17.50
2019-03-02T07:38:39.415Z,18.37
2019-03-02T07:41:09.829Z,18.50
2019-03-02T07:43:42.190Z,16.83
2019-03-02T07:46:12.762Z,17.27
2019-03-02T07:48:43.159Z,18.87
2019-03-02T07:51:13.582Z,17.77
2019-03-02T07:53:43.907Z,17.17
2019-03-02T07:56:14.330Z,17.67
2019-03-02T07:58:44.704Z,17.40
2019-03-02T08:01:16.644Z,17.37
2019-03-02T08:03:47.238Z,17.13
2019-03-02T08:06:17.661Z,16.10
2019-03-02T08:08:49.259Z,18.10
2019-03-02T08:11:20.341Z,16.80
2019-03-02T08:13:50.737Z,16.77
2019-03-02T08:16:21.109Z,15.97
2019-03-02T08:18:51.527Z,17.50
2019-03-02T08:21:21.940Z,17.37
2019-03-02T08:23:53.947Z,15.90
2019-03-02T08:26:24.287Z,16.50
2019-03-02T08:28:54.974Z,16.50
2019-03-02T08:31:25.357Z,16.10
2019-03-02T08:33:55.762Z,17.20
2019-03-02T08:36:26.153Z,16.43
2019-03-02T08:38:56.581Z,15.87
2019-03-02T08:41:26.935Z,15.73
2019-03-02T08:43:57.346Z,15.93
2019-03-02T08:46:27.689Z,16.57
2019-03-02T08:48:58.119Z,17.17
2019-03-02T08:51:29.223Z,16.20
2019-03-02T08:53:59.627Z,15.37
2019-03-02T08:56:30.017Z,15.10
2019-03-02T08:59:01.906Z,15.93
2019-03-02T09:01:32.555Z,15.90
2019-03-02T09:04:03.296Z,16.07
2019-03-02T09:06:34.780Z,14.37
2019-03-02T09:09:08.518Z,16.60
2019-03-02T09:11:40.911Z,14.27
2019-03-02T09:14:12.638Z,14.67
2019-03-02T09:16:43.165Z,14.53
2019-03-02T09:19:16.864Z,14.47
2019-03-02T09:21:47.951Z,14.80
2019-03-02T09:24:19.567Z,13.67
2019-03-02T09:26:50.171Z,13.87
2019-03-02T09:29:21.164Z,14.63
2019-03-02T09:31:51.774Z,13.33
2019-03-02T09:34:22.424Z,12.90
2019-03-02T09:36:53.173Z,13.90
2019-03-02T09:39:23.898Z,14.10
2019-03-02T09:41:57.801Z,12.70
2019-03-02T09:44:26.808Z,13.00
2019-03-02T09:46:57.431Z,13.30
2019-03-02T09:49:28.013Z,12.40
2019-03-02T09:51:58.704Z,11.50
2019-03-02T09:54:29.302Z,12.33
2019-03-02T09:56:59.806Z,13.50
2019-03-02T09:59:30.390Z,13.30
2019-03-02T10:02:00.887Z,12.17
2019-03-02T10:04:31.732Z,11.90
2019-03-02T10:07:03.354Z,11.73
2019-03-02T10:09:33.973Z,11.80
2019-03-02T10:12:05.189Z,12.53
2019-03-02T10:14:36.032Z,12.50
2019-03-02T10:17:06.643Z,11.07
2019-03-02T10:19:37.042Z,10.77
2019-03-02T10:22:07.910Z,11.37
2019-03-02T10:24:39.715Z,12.30
2019-03-02T10:27:10.409Z,11.93
2019-03-02T10:29:44.260Z,11.30
2019-03-02T10:32:13.508Z,12.43
2019-03-02T10:34:45.330Z,11.00
2019-03-02T10:37:15.998Z,11.33
2019-03-02T10:39:46.637Z,12.50
2019-03-02T10:42:17.273Z,11.20
2019-03-02T10:44:47.866Z,11.07
2019-03-02T10:47:18.619Z,11.27
2019-03-02T10:49:49.360Z,11.33
2019-03-02T10:52:19.992Z,11.00
2019-03-02T10:54:50.399Z,10.17
2019-03-02T10:57:21.134Z,9.93
2019-03-02T10:59:53.139Z,11.37
2019-03-02T11:02:25.769Z,9.80
2019-03-02T11:05:02.775Z,10.60
2019-03-02T11:08:00.907Z,9.67
2019-03-02T11:10:57.535Z,10.27
2019-03-02T11:13:56.437Z,9.67
2019-03-02T11:16:56.862Z,10.40
2019-03-02T11:19:37.015Z,9.00
2019-03-02T11:22:38.315Z,10.33
2019-03-02T11:25:27.774Z,10.17
2019-03-02T11:28:16.402Z,9.80
2019-03-02T11:31:11.716Z,8.50
2019-03-02T11:34:01.564Z,9.03
2019-03-02T11:36:51.809Z,9.70
2019-03-02T11:39:28.101Z,8.30
2019-03-02T11:42:26.619Z,9.40
2019-03-02T11:45:11.630Z,8.80
2019-03-02T11:48:00.935Z,9.40
2019-03-02T11:50:55.839Z,9.27
2019-03-02T11:53:52.063Z,9.17
2019-03-02T11:56:39.090Z,8.37
2019-03-02T11:59:28.533Z,9.27
2019-03-02T12:02:24.799Z,9.37
2019-03-02T12:05:13.135Z,8.63
2019-03-02T12:08:11.870Z,8.73
2019-03-02T12:11:01.195Z,9.23
2019-03-02T12:13:56.266Z,8.60
2019-03-02T12:17:00.229Z,8.57
2019-03-02T12:19:50.787Z,8.37
2019-03-02T12:22:48.956Z,8.73
2019-03-02T12:25:56.109Z,8.37
2019-03-02T12:28:55.689Z,9.03
2019-03-02T12:31:47.597Z,8.90
2019-03-02T12:34:39.728Z,8.63
2019-03-02T12:37:32.821Z,9.17
2019-03-02T12:40:21.093Z,8.27
2019-03-02T12:43:23.075Z,9.20
2019-03-02T12:46:21.069Z,9.20
2019-03-02T12:49:10.969Z,8.93
2019-03-02T12:51:52.371Z,9.13
2019-03-02T12:54:43.329Z,9.57
2019-03-02T12:57:30.805Z,9.50
2019-03-02T13:00:24.931Z,9.80
2019-03-02T13:03:12.617Z,9.40
2019-03-02T13:06:04.973Z,10.67
2019-03-02T13:09:02.793Z,8.70
2019-03-02T13:11:57.892Z,9.30
2019-03-02T13:14:56.345Z,8.63
2019-03-02T13:17:38.503Z,9.73
2019-03-02T13:20:35.647Z,9.83
2019-03-02T13:23:26.459Z,8.90
2019-03-02T13:26:25.035Z,8.50
2019-03-02T13:29:27.497Z,9.07
2019-03-02T13:32:23.063Z,8.50
2019-03-02T13:35:05.947Z,9.03
2019-03-02T13:38:11.060Z,8.43
2019-03-02T13:40:59.207Z,8.20
2019-03-02T13:44:02.162Z,7.73
2019-03-02T13:46:37.192Z,8.50
2019-03-02T13:49:38.596Z,7.03
2019-03-02T13:52:33.947Z,7.67
2019-03-02T13:55:13.479Z,8.70
2019-03-02T13:57:59.378Z,7.43
2019-03-02T14:00:44.188Z,7.53
2019-03-02T14:03:37.694Z,7.70
2019-03-02T14:06:29.818Z,8.80
2019-03-02T14:09:19.833Z,8.37
2019-03-02T14:12:19.551Z,7.90
2019-03-02T14:15:07.013Z,8.00
2019-03-02T14:18:07.976Z,8.53
2019-03-02T14:21:12.254Z,8.33
2019-03-02T14:24:03.911Z,7.70
2019-03-02T14:26:55.732Z,9.43
2019-03-02T14:29:47.119Z,8.73
2019-03-02T14:32:28.040Z,8.00
2019-03-02T14:35:08.497Z,8.37
2019-03-02T14:37:52.052Z,7.90
2019-03-02T14:40:51.274Z,8.40
2019-03-02T14:43:37.457Z,7.87
2019-03-02T14:46:26.823Z,7.83
2019-03-02T14:49:20.535Z,8.60
2019-03-02T14:52:12.966Z,7.73
2019-03-02T14:55:05.376Z,7.93
2019-03-02T14:58:03.833Z,7.93
2019-03-02T15:00:50.344Z,8.17
2019-03-02T15:03:33.950Z,7.73
2019-03-02T15:06:14.686Z,7.73
2019-03-02T15:09:05.302Z,8.63
2019-03-02T15:11:54.628Z,7.63
2019-03-02T15:14:32.082Z,7.53
2019-03-02T15:17:12.242Z,8.33
2019-03-02T15:19:57.424Z,8.27
2019-03-02T15:22:29.504Z,7.17
2019-03-02T15:25:16.045Z,7.23
2019-03-02T15:28:04.003Z,8.10
2019-03-02T15:30:59.141Z,7.60
2019-03-02T15:33:50.521Z,7.33
2019-03-02T15:36:43.967Z,7.53
2019-03-02T15:39:49.274Z,7.87
2019-03-02T15:42:54.216Z,7.63
2019-03-02T15:45:42.533Z,8.80
2019-03-02T15:48:31.995Z,8.23
2019-03-02T15:51:26.956Z,8.20
2019-03-02T15:54:15.011Z,7.43
2019-03-02T15:57:03.572Z,7.53
2019-03-02T15:59:51.538Z,7.60
2019-03-02T16:02:52.731Z,7.53
2019-03-02T16:05:47.872Z,8.27
2019-03-02T16:08:32.174Z,7.70
2019-03-02T16:11:32.307Z,8.23
2019-03-02T16:14:10.921Z,7.90
2019-03-02T16:16:59.963Z,8.00
2019-03-02T16:19:55.867Z,7.27
2019-03-02T16:22:57.345Z,6.60
2019-03-02T16:25:52.720Z,7.47
2019-03-02T16:28:34.173Z,7.43
2019-03-02T16:31:27.147Z,7.63
2019-03-02T16:34:08.738Z,7.13
2019-03-02T16:36:59.576Z,7.07
2019-03-02T16:40:04.138Z,7.07
2019-03-02T16:42:52.250Z,6.87
2019-03-02T16:46:07.833Z,7.60
2019-03-02T16:48:47.886Z,7.07
2019-03-02T16:52:02.291Z,7.97
2019-03-02T16:54:56.757Z,7.40
2019-03-02T16:57:41.120Z,6.97
2019-03-02T17:00:31.715Z,7.00
2019-03-02T17:03:17.719Z,6.93
2019-03-02T17:06:13.613Z,7.10
2019-03-02T17:08:52.445Z,7.70
2019-03-02T17:12:00.150Z,7.07
2019-03-02T17:14:48.398Z,7.63
2019-03-02T17:17:35.938Z,7.60
2019-03-02T17:20:18.283Z,7.70
2019-03-02T17:22:57.179Z,8.37
2019-03-02T17:25:36.201Z,7.87
2019-03-02T17:28:35.295Z,8.10
2019-03-02T17:31:23.315Z,8.23
2019-03-02T17:34:15.447Z,8.10
2019-03-02T17:37:00.604Z,8.23
2019-03-02T17:40:01.288Z,5.97
2019-03-02T17:42:48.331Z,7.13
2019-03-02T17:45:40.325Z,9.03
2019-03-02T17:48:25.875Z,10.17
2019-03-02T17:51:18.085Z,8.80
2019-03-02T17:54:03.434Z,5.73
2019-03-02T17:56:53.756Z,7.87
2019-03-02T17:59:39.712Z,6.57
2019-03-02T18:02:25.185Z,8.20
2019-03-02T18:05:17.498Z,8.27
2019-03-02T18:08:15.377Z,7.93
2019-03-02T18:11:13.463Z,9.83
2019-03-02T18:14:07.572Z,9.10
2019-03-02T18:17:15.230Z,11.00
2019-03-02T18:19:46.878Z,11.10
2019-03-02T18:22:17.303Z,9.53
2019-03-02T18:24:48.203Z,8.87
2019-03-02T18:27:20.021Z,7.67
2019-03-02T18:29:50.536Z,7.47
2019-03-02T18:32:23.497Z,7.83
2019-03-02T18:34:56.828Z,7.00
2019-03-02T18:37:30.263Z,7.90
2019-03-02T18:40:02.173Z,7.30
2019-03-02T18:42:30.816Z,7.37
2019-03-02T18:45:04.337Z,8.37
2019-03-02T18:47:34.200Z,7.13
2019-03-02T18:50:25.013Z,7.97
2019-03-02T18:53:13.114Z,7.80
2019-03-02T18:55:43.519Z,7.43
2019-03-02T18:58:13.867Z,7.63
2019-03-02T19:00:49.314Z,7.33
2019-03-02T19:03:21.074Z,7.40
2019-03-02T19:05:51.960Z,6.83
2019-03-02T19:08:22.422Z,7.30
2019-03-02T19:10:52.829Z,6.83
2019-03-02T19:13:23.202Z,6.87
2019-03-02T19:15:54.123Z,6.60
2019-03-02T19:18:24.467Z,7.63
2019-03-02T19:20:54.886Z,6.63
2019-03-02T19:23:25.410Z,6.43
2019-03-02T19:25:56.015Z,7.50
2019-03-02T19:28:26.444Z,7.20
2019-03-02T19:30:56.855Z,6.97
2019-03-02T19:33:27.271Z,7.27
2019-03-02T19:35:57.648Z,6.93
2019-03-02T19:38:28.108Z,6.87
2019-03-02T19:40:58.544Z,7.23
2019-03-02T19:43:28.882Z,7.10
2019-03-02T19:45:59.330Z,6.63
2019-03-02T19:48:29.781Z,8.00
2019-03-02T19:51:00.202Z,8.53
2019-03-02T19:53:30.613Z,8.63
2019-03-02T19:56:01.036Z,10.63
2019-03-02T19:58:31.390Z,9.07
2019-03-02T20:01:01.781Z,9.20
2019-03-02T20:03:32.183Z,8.33
2019-03-02T20:06:02.598Z,6.87
2019-03-02T20:08:33.150Z,7.80
2019-03-02T20:11:03.639Z,7.53
2019-03-02T20:13:34.749Z,7.83
2019-03-02T20:16:07.854Z,7.90
2019-03-02T20:18:38.236Z,7.03
2019-03-02T20:21:08.742Z,7.93
2019-03-02T20:23:39.226Z,7.57
2019-03-02T20:26:09.749Z,7.53
2019-03-02T20:28:40.275Z,8.10
2019-03-02T20:31:10.670Z,7.47
2019-03-02T20:33:41.159Z,7.63
2019-03-02T20:36:11.610Z,7.93
2019-03-02T20:38:42.063Z,6.90
2019-03-02T20:41:19.512Z,7.10
2019-03-02T20:43:50.056Z,7.47
2019-03-02T20:46:20.712Z,8.07
2019-03-02T20:48:51.266Z,7.90
2019-03-02T20:51:21.744Z,7.87
2019-03-02T20:53:52.251Z,8.43
2019-03-02T20:56:22.863Z,8.20
2019-03-02T20:58:53.320Z,7.97
2019-03-02T21:01:25.135Z,8.80
2019-03-02T21:03:55.502Z,8.00
2019-03-02T21:06:25.926Z,8.27
2019-03-02T21:08:56.392Z,8.60
2019-03-02T21:11:26.761Z,8.20
2019-03-02T21:13:57.334Z,8.70
2019-03-02T21:16:27.740Z,7.47
2019-03-02T21:18:58.379Z,8.57
2019-03-02T21:21:29.016Z,8.40
2019-03-02T21:23:59.445Z,8.37
2019-03-02T21:26:30.017Z,8.40
2019-03-02T21:29:00.602Z,8.40
2019-03-02T21:31:31.050Z,8.20
2019-03-02T21:34:01.460Z,7.73
2019-03-02T21:36:31.905Z,7.70
2019-03-02T21:39:02.341Z,8.07
2019-03-02T21:41:32.717Z,7.57
2019-03-02T21:44:03.291Z,7.87
2019-03-02T21:46:33.725Z,7.10
2019-03-02T21:49:04.179Z,7.40
2019-03-02T21:51:34.598Z,7.07
2019-03-02T21:54:04.975Z,7.53
2019-03-02T21:56:35.403Z,7.03
2019-03-02T21:59:05.797Z,6.83
2019-03-02T22:01:36.213Z,6.93
2019-03-02T22:04:06.581Z,6.37
2019-03-02T22:06:37.025Z,6.33
2019-03-02T22:09:08.519Z,6.50
2019-03-02T22:11:38.921Z,5.93
2019-03-02T22:14:14.001Z,6.87
2019-03-02T22:16:44.299Z,6.93
2019-03-02T22:19:14.703Z,6.20
2019-03-02T22:21:45.125Z,6.13
2019-03-02T22:24:15.476Z,6.60
2019-03-02T22:26:45.876Z,6.50
2019-03-02T22:29:18.002Z,5.63
2019-03-02T22:31:48.364Z,5.70
2019-03-02T22:34:18.726Z,5.63
2019-03-02T22:36:49.118Z,5.63
2019-03-02T22:39:19.513Z,5.87
2019-03-02T22:41:49.906Z,5.70
2019-03-02T22:44:20.286Z,6.00
2019-03-02T22:46:50.625Z,5.27
2019-03-02T22:49:21.008Z,5.27
2019-03-02T22:51:51.458Z,4.87
2019-03-02T22:54:21.822Z,5.60
2019-03-02T22:56:52.240Z,4.97
2019-03-02T22:59:22.612Z,5.60
2019-03-02T23:02:07.605Z,5.13
2019-03-02T23:04:37.946Z,5.10
2019-03-02T23:07:08.335Z,5.47
2019-03-02T23:09:38.710Z,5.70
2019-03-02T23:12:09.117Z,5.17
2019-03-02T23:14:39.488Z,5.20
2019-03-02T23:17:09.942Z,5.37
2019-03-02T23:19:40.304Z,4.90
2019-03-02T23:22:10.692Z,4.83
2019-03-02T23:24:41.052Z,5.20
2019-03-02T23:27:11.414Z,5.27
2019-03-02T23:29:41.912Z,4.80
2019-03-02T23:32:12.236Z,4.57
2019-03-02T23:34:42.626Z,4.63
2019-03-02T23:37:12.956Z,4.10
2019-03-02T23:39:43.348Z,4.50
2019-03-02T23:42:13.702Z,3.83
2019-03-02T23:44:45.052Z,4.00
2019-03-02T23:47:15.415Z,3.90
2019-03-02T23:49:45.976Z,4.03
2019-03-02T23:52:16.340Z,4.20
2019-03-02T23:54:46.761Z,4.43
2019-03-02T23:57:17.135Z,4.23
2019-03-02T23:59:47.479Z,4.00
